Caputa, SD (57725)

12:00 PM MST on February 06, 2016 (GMT -0700)
Rapid City | | Change Station
CLOSE
Current Station
Airport
Location: Rapid City,
Elevation: 3166 ft
Nearby Weather Stations
Active Advisory: High Wind Warning

Elev 3166 ft 44.05 °N, 103.06 °W | Updated 8 minutes ago

Partly Cloudy
Partly Cloudy
45 °F
Feels Like 42 °F
N
6
Wind Variable Wind from SSE

Today
High -- | Low -- °F
--% Chance of Precip.
Yesterday
High -- | Low -- °F
Precip. -- in
Pressure 29.96 in
Visibility 10.0 miles
Clouds Clear
Windchill 42 °F
Dew Point 28 °F
Humidity 52%
Rainfall 0.00 in
Snow Depth Not available.
7:03 AM 5:08 PM
Waning Crescent, 4% visible
METAR KRAP 061852Z 16005KT 10SM CLR 07/M02 A2989 RMK AO2 PRESFR SLP144 T00721022
Pressure 29.96 in
Visibility 10.0 miles
Clouds Clear
Windchill 42 °F
Dew Point 28 °F
Humidity 52%
Rainfall 0.00 in
Snow Depth Not available.
7:03 AM 5:08 PM
Waning Crescent, 4% visible
METAR KRAP 061852Z 16005KT 10SM CLR 07/M02 A2989 RMK AO2 PRESFR SLP144 T00721022

10-Day Weather Forecast

Almanac

Astronomy

Feb. 06, 2016 Rise Set
Actual Time
Civil Twilight
Nautical Twilight
Astronomical Twilight
Moon
Length of Visible Light
Length of Day
Tomorrow will be .
, % of the Moon is Illuminated

Today's Extremes

State Highs State Lows

Community

WunderPhotos

Upload Photos

1,891,033 photos uploaded!

WunderBlog® & News

Nearby

Air Quality

  Air Quality AQ Index Pollutant
Not available.

Snow Depth

Station Depth Elevation

Earthquake Activity

City Distance Mag. Time & Date
Minimum magnitude displayed is 2.5.

Coastal Water Temperatures

Place Temperature

Stations

Nearby Weather Stations

Station Location Temp. Windchill Dew Point Humidity Wind Precip. Elev Updated Type
                   

Watches & Warnings

High Wind Warning
Issued: 4:33 AM MST Feb. 6, 2016 – National Weather Service

... High Wind Warning remains in effect from 5 PM this afternoon
to 8 PM MST Sunday...

* timing... initial strong winds possible this evening... breezy
winds overnight... and the strongest winds Sunday morning
through Sunday evening.

* Winds... northwest 35 to 45 mph with gusts up to 70 mph.

* Impacts... the high winds can blow down large trees... and
damage roofs... small outbuildings... and signs. Sudden wind
gusts can cause drivers to lose control... especially in
lightweight or high profile vehicles. Strong winds can cause
blowing dust... reduced visibility... and flying debris.